2WY4 weather

Raco 1 Heliport
Burns, Wyoming, United States

Public forecast

Using degrees Fahrenheit for public forecast. Weather courtesy of forecast.io.

Closest aviation weather report (METAR) to Raco 1 Heliport

Closest report is Pine Bluffs Municipal Airport, 14.3 nm (26.5 km) E. Retrieved UTC (0 seconds ago):

Closest aviation forecast (TAF) to Raco 1 Heliport

Closest forecast is Cheyenne Regional Jerry Olson Field, 16.5 nm (30.6 km) W. Retrieved 2019/10/18 12:22 UTC (3 hours ago):

TAF KCYS 181120Z 1812/1912 28018G28KT P6SM SKC FM181400 30022G32KT P6SM SCT200 FM181600 30028G40KT P6SM FEW250 FM190000 31017G27KT P6SM SCT080 BKN250